Time;durP1;ratioP1;P1;durP2;ratioP2;P2;SDS_P1;SDS_P2;PMS_P1;PMS_P2;Temp;Humidity;BMP_temperature;BMP_pressure;BME280_temperature;BME280_humidity;BME280_pressure;Samples;Min_cycle;Max_cycle;Signal;HPM_P1;HPM_P2
2022/04/29 00:02:25;;;;;;;6.40;2.10;;;;;;;10.48;48.37;101250.95;1742623;82;20988;-61
2022/04/29 00:04:55;;;;;;;4.92;2.25;;;;;;;10.41;48.46;101245.84;1742674;82;21102;-59
2022/04/29 00:07:27;;;;;;;4.65;2.22;;;;;;;10.36;48.52;101244.11;1742794;82;21008;-61
2022/04/29 00:09:58;;;;;;;4.60;2.20;;;;;;;10.29;48.88;101241.73;1742598;82;21019;-61
2022/04/29 00:12:28;;;;;;;5.55;2.30;;;;;;;10.28;49.13;101244.13;1742885;82;21043;-62
2022/04/29 00:15:00;;;;;;;6.05;2.15;;;;;;;10.25;49.11;101243.11;1742728;82;20992;-62
2022/04/29 00:17:30;;;;;;;4.10;1.90;;;;;;;10.19;49.20;101239.67;1742568;82;21074;-62
2022/04/29 00:19:59;;;;;;;3.20;1.90;;;;;;;10.17;49.31;101241.73;1742635;82;21467;-62
2022/04/29 00:22:29;;;;;;;6.08;2.02;;;;;;;10.12;49.31;101241.40;1713648;82;21059;-61
2022/04/29 00:25:00;;;;;;;5.30;2.10;;;;;;;10.08;49.26;101243.63;1742777;82;21059;-60
2022/04/29 00:27:31;;;;;;;5.55;2.25;;;;;;;10.02;49.56;101238.00;1742593;82;21086;-60
2022/04/29 00:30:04;;;;;;;3.75;2.00;;;;;;;9.99;50.11;101245.19;1742964;82;21019;-60
2022/04/29 00:32:33;;;;;;;4.87;2.40;;;;;;;9.92;50.57;101245.54;1742685;81;21051;-60
2022/04/29 00:35:05;;;;;;;7.55;2.27;;;;;;;9.84;50.60;101248.62;1742577;82;21500;-61
2022/04/29 00:37:51;;;;;;;3.77;2.10;;;;;;;9.81;50.79;101246.75;1714057;82;21095;-61
2022/04/29 00:40:25;;;;;;;3.35;2.08;;;;;;;9.77;50.96;101239.39;1742607;82;21067;-61
2022/04/29 00:42:56;;;;;;;3.62;1.85;;;;;;;9.75;51.18;101239.20;1668096;85;21055;-61
2022/04/29 00:45:26;;;;;;;5.50;2.40;;;;;;;9.76;51.23;101244.53;1678799;84;21111;-62
2022/04/29 00:47:55;;;;;;;4.47;2.05;;;;;;;9.73;51.30;101238.51;1678715;85;21507;-61
2022/04/29 00:50:29;;;;;;;5.78;2.10;;;;;;;9.69;51.48;101239.37;1678866;85;21536;-60
2022/04/29 00:52:59;;;;;;;5.62;2.00;;;;;;;9.66;51.56;101241.59;1683259;85;21091;-61
2022/04/29 00:55:30;;;;;;;5.22;2.00;;;;;;;9.60;51.41;101235.44;1628338;88;21023;-59
2022/04/29 00:58:07;;;;;;;4.90;2.20;;;;;;;9.57;51.25;101238.00;1607487;88;21194;-61
2022/04/29 01:00:38;;;;;;;4.80;2.20;;;;;;;9.50;51.23;101232.36;1636842;87;21134;-61
2022/04/29 01:03:11;;;;;;;3.83;2.12;;;;;;;9.43;51.92;101236.80;1654875;87;21187;-67
2022/04/29 01:05:43;;;;;;;4.95;2.35;;;;;;;9.38;52.03;101230.13;1654959;87;21097;-59
2022/04/29 01:08:14;;;;;;;3.77;2.22;;;;;;;9.35;52.09;101232.69;1612327;87;21178;-61
2022/04/29 01:10:46;;;;;;;3.40;1.87;;;;;;;9.34;51.98;101230.98;1602052;87;21159;-62
2022/04/29 01:13:17;;;;;;;3.90;1.80;;;;;;;9.29;52.08;101232.00;1662966;83;21479;-60
2022/04/29 01:15:50;;;;;;;4.97;2.20;;;;;;;9.21;52.34;101234.21;1717253;83;21082;-60
2022/04/29 01:18:21;;;;;;;4.40;1.85;;;;;;;9.12;52.72;101230.27;1735517;82;21090;-60
2022/04/29 01:21:06;;;;;;;3.15;1.90;;;;;;;9.05;53.21;101223.22;1735577;82;21071;-59
2022/04/29 01:23:35;;;;;;;4.45;1.92;;;;;;;8.98;53.58;101218.58;1656271;86;21590;-59
2022/04/29 01:26:07;;;;;;;3.52;1.80;;;;;;;8.92;53.95;101226.09;1656375;86;21173;-61
2022/04/29 01:28:36;;;;;;;3.95;1.77;;;;;;;8.90;54.09;101228.48;1656405;86;21047;-60
2022/04/29 01:31:06;;;;;;;3.12;1.75;;;;;;;8.86;54.21;101230.34;1656366;86;21114;-60
2022/04/29 01:33:37;;;;;;;4.20;1.90;;;;;;;8.81;54.69;101228.62;1656456;86;21583;-61
2022/04/29 01:36:08;;;;;;;5.45;1.95;;;;;;;8.77;54.80;101231.34;1634815;86;21467;-60
2022/04/29 01:38:41;;;;;;;4.22;2.25;;;;;;;8.69;54.75;101225.34;1656512;86;21098;-60
2022/04/29 01:41:10;;;;;;;4.42;1.80;;;;;;;8.63;55.20;101226.51;1678205;83;21588;-60
2022/04/29 01:43:43;;;;;;;4.08;1.98;;;;;;;8.58;55.38;101229.22;1735750;81;21043;-61
2022/04/29 01:46:15;;;;;;;5.22;2.15;;;;;;;8.53;55.36;101226.13;1735634;81;21038;-60
2022/04/29 01:48:44;;;;;;;4.08;2.15;;;;;;;8.52;55.27;101227.15;1735914;83;21042;-61
2022/04/29 01:51:15;;;;;;;5.35;2.22;;;;;;;8.51;55.12;101226.80;1735921;82;21454;-61
2022/04/29 01:53:53;;;;;;;4.45;2.05;;;;;;;8.49;55.11;101227.48;1742866;82;21549;-60
2022/04/29 01:56:17;;;;;;;6.42;2.35;;;;;;;8.51;55.26;101226.80;1741952;82;21035;-61
2022/04/29 01:58:48;;;;;;;5.80;2.52;;;;;;;8.53;55.06;101237.05;1713848;82;21040;-60
2022/04/29 02:01:19;;;;;;;5.80;2.30;;;;;;;8.53;55.09;101235.69;1742639;82;21455;-59
2022/04/29 02:03:49;;;;;;;4.10;2.20;;;;;;;8.50;55.29;101242.84;1743082;82;21018;-61
2022/04/29 02:06:20;;;;;;;3.98;2.30;;;;;;;8.48;55.39;101240.78;1629822;87;21095;-60
2022/04/29 02:08:51;;;;;;;3.80;2.12;;;;;;;8.51;55.36;101242.34;1651364;87;21094;-60
2022/04/29 02:11:22;;;;;;;5.58;2.47;;;;;;;8.50;55.27;101242.84;1651303;87;21523;-61
2022/04/29 02:14:03;;;;;;;5.85;2.58;;;;;;;8.49;55.30;101241.13;1648239;86;21035;-59
2022/04/29 02:16:37;;;;;;;5.35;2.50;;;;;;;8.49;55.31;101233.45;1648853;86;21529;-60
2022/04/29 02:19:06;;;;;;;5.65;2.80;;;;;;;8.49;55.34;101235.67;1651459;86;21086;-62
2022/04/29 02:21:38;;;;;;;7.20;2.85;;;;;;;8.50;55.30;101235.16;1651379;86;21507;-61
2022/04/29 02:24:08;;;;;;;6.08;2.85;;;;;;;8.47;55.27;101228.16;1684530;81;21051;-60
2022/04/29 02:26:39;;;;;;;7.45;2.67;;;;;;;8.49;55.22;101232.94;1742637;82;21000;-60
2022/04/29 02:29:12;;;;;;;5.83;2.50;;;;;;;8.50;55.26;101234.66;1713974;82;21027;-61
2022/04/29 02:31:42;;;;;;;5.58;2.58;;;;;;;8.51;55.31;101243.70;1742765;81;21026;-60
2022/04/29 02:34:12;;;;;;;7.30;2.72;;;;;;;8.48;55.40;101236.69;1651390;86;21487;-59
2022/04/29 02:36:43;;;;;;;5.95;3.05;;;;;;;8.47;55.43;101239.08;1629679;87;21093;-61
2022/04/29 02:39:14;;;;;;;8.63;3.00;;;;;;;8.45;55.53;101247.05;1651569;87;21059;-59
2022/04/29 02:41:44;;;;;;;6.53;2.80;;;;;;;8.43;55.67;101251.31;1651775;87;21051;-60
2022/04/29 02:44:14;;;;;;;6.83;2.75;;;;;;;8.41;55.77;101247.89;1651417;86;21106;-62
2022/04/29 02:49:41;;;;;;;5.83;2.60;;;;;;;8.44;55.80;101248.07;1651444;86;21103;-61
2022/04/29 02:52:13;;;;;;;7.22;2.55;;;;;;;8.44;55.70;101254.39;1670447;82;21007;-60
2022/04/29 02:54:43;;;;;;;6.60;2.83;;;;;;;8.44;55.69;101259.00;1747502;82;21050;-60
2022/04/29 02:57:18;;;;;;;5.92;2.80;;;;;;;8.47;55.72;101258.20;1746123;82;21063;-59
2022/04/29 02:59:49;;;;;;;5.25;2.52;;;;;;;8.49;55.88;101260.77;1747529;81;21019;-61
2022/04/29 03:02:18;;;;;;;5.83;3.00;;;;;;;8.47;55.81;101259.56;1747461;82;21439;-61
2022/04/29 03:04:49;;;;;;;6.22;3.08;;;;;;;8.46;55.83;101262.45;1747638;82;21086;-61
2022/04/29 03:07:18;;;;;;;8.35;2.90;;;;;;;8.43;55.91;101260.87;1747385;82;21074;-60
2022/04/29 03:09:54;;;;;;;6.72;2.95;;;;;;;8.45;56.12;101264.33;1747536;81;21089;-61
2022/04/29 03:12:24;;;;;;;5.50;3.00;;;;;;;8.46;56.14;101267.41;1747367;82;21023;-60
2022/04/29 03:15:15;;;;;;;6.65;2.80;;;;;;;8.45;56.12;101268.91;1719352;82;21031;-59
2022/04/29 03:20:17;;;;;;;;;;;;;;;8.46;55.75;101273.38;1750244;82;21042;-60
2022/04/29 03:22:48;;;;;;;7.78;2.62;;;;;;;8.46;55.63;101272.87;1747404;82;20202;-59
2022/04/29 03:25:18;;;;;;;5.50;2.90;;;;;;;8.48;55.61;101282.27;1747690;82;21078;-60
2022/04/29 03:27:49;;;;;;;7.25;2.98;;;;;;;8.48;55.59;101283.63;1747390;82;21041;-59
2022/04/29 03:30:20;;;;;;;10.10;3.27;;;;;;;8.50;55.49;101286.55;1747338;82;21015;-59
2022/04/29 03:32:58;;;;;;;7.17;3.62;;;;;;;8.53;55.24;101282.63;1659890;85;21075;-61
2022/04/29 03:35:34;;;;;;;9.58;3.10;;;;;;;8.56;55.14;101287.77;1650015;87;21023;-59
2022/04/29 03:38:05;;;;;;;5.97;2.87;;;;;;;8.58;54.95;101285.22;1631530;88;21044;-60
2022/04/29 03:40:36;;;;;;;5.60;3.15;;;;;;;8.61;54.76;101285.91;1683256;85;21491;-62
2022/04/29 03:43:07;;;;;;;6.40;3.10;;;;;;;8.64;54.40;101295.15;1683317;85;21015;-60
2022/04/29 03:45:39;;;;;;;5.17;2.77;;;;;;;8.65;54.35;101291.40;1683477;85;21090;-62
2022/04/29 03:48:12;;;;;;;6.03;2.80;;;;;;;8.67;54.23;101292.09;1683143;85;21011;-61
2022/04/29 03:50:46;;;;;;;5.78;2.60;;;;;;;8.70;54.16;101297.23;1708199;82;21015;-61
2022/04/29 03:53:16;;;;;;;8.10;2.70;;;;;;;8.76;54.02;101294.70;1741035;82;21078;-62
2022/04/29 03:55:51;;;;;;;7.90;3.33;;;;;;;8.79;53.89;101296.24;1736866;82;21095;-61
2022/04/29 03:58:21;;;;;;;6.20;2.52;;;;;;;8.83;53.79;101303.09;1737235;82;21067;-61
2022/04/29 04:00:54;;;;;;;7.58;2.50;;;;;;;8.87;53.74;101307.20;1737396;82;21471;-60
2022/04/29 04:03:36;;;;;;;6.58;2.50;;;;;;;8.89;53.71;101305.17;1735924;82;21024;-60
2022/04/29 04:08:57;;;;;;;6.95;2.62;;;;;;;9.00;53.18;101305.38;1633883;87;21057;-60
2022/04/29 04:11:27;;;;;;;4.80;2.52;;;;;;;9.07;52.83;101309.16;1655902;87;21087;-60
2022/04/29 04:13:57;;;;;;;6.22;2.62;;;;;;;9.10;52.77;101312.45;1655656;87;21471;-61
2022/04/29 04:16:28;;;;;;;10.30;3.02;;;;;;;9.17;52.58;101312.13;1655271;86;21059;-60
2022/04/29 04:18:59;;;;;;;9.03;2.95;;;;;;;9.24;52.41;101315.56;1655751;87;21107;-61
2022/04/29 04:21:29;;;;;;;8.73;2.67;;;;;;;9.30;52.21;101314.90;1655722;87;21062;-60
2022/04/29 04:24:00;;;;;;;7.83;2.85;;;;;;;9.35;52.08;101318.84;1689194;82;21067;-61
2022/04/29 04:26:31;;;;;;;8.20;2.52;;;;;;;9.41;51.83;101315.44;1737010;82;21428;-61
2022/04/29 04:29:02;;;;;;;8.28;2.85;;;;;;;9.45;51.63;101317.33;1737062;82;21087;-60
2022/04/29 04:31:34;;;;;;;4.35;2.15;;;;;;;9.47;51.48;101312.55;1736607;82;21080;-60
2022/04/29 04:34:49;;;;;;;4.70;2.40;;;;;;;9.53;51.31;101318.20;1737074;82;21055;-59
2022/04/29 04:36:36;;;;;;;8.55;3.17;;;;;;;9.60;51.14;101315.64;1734718;82;21040;-61
2022/04/29 04:39:07;;;;;;;8.68;2.70;;;;;;;9.69;50.84;101314.63;1737246;82;21130;-60
2022/04/29 04:41:37;;;;;;;5.97;2.47;;;;;;;9.80;50.66;101314.32;1737398;82;21214;-58
2022/04/29 04:44:08;;;;;;;4.15;2.20;;;;;;;9.94;50.51;101311.41;1716608;82;21083;-60
2022/04/29 04:46:39;;;;;;;7.47;2.35;;;;;;;10.11;49.99;101309.52;1737094;82;21016;-62
2022/04/29 04:49:13;;;;;;;3.08;2.17;;;;;;;10.26;49.26;101311.08;1716459;82;21098;-60
2022/04/29 04:51:59;;;;;;;6.12;2.42;;;;;;;10.37;48.94;101316.20;1720049;82;21063;-61
2022/04/29 04:54:31;;;;;;;5.22;2.08;;;;;;;10.50;48.82;101310.20;1716200;82;21020;-60
2022/04/29 04:57:03;;;;;;;4.42;2.50;;;;;;;10.63;48.21;101312.73;1716642;82;21036;-61
2022/04/29 04:59:33;;;;;;;8.40;2.60;;;;;;;10.75;47.83;101306.36;1737235;82;21506;-62
2022/04/29 05:02:05;;;;;;;7.05;2.52;;;;;;;10.90;47.27;101304.58;1737242;82;21015;-61
2022/04/29 05:04:58;;;;;;;5.12;2.47;;;;;;;11.03;47.03;101306.76;1734499;82;21020;-60
2022/04/29 05:07:34;;;;;;;6.15;2.50;;;;;;;11.18;46.68;101306.38;1710682;82;21031;-61
2022/04/29 05:10:08;;;;;;;5.22;2.67;;;;;;;11.30;46.49;101309.56;1683163;84;21090;-61
2022/04/29 05:12:42;;;;;;;4.47;2.27;;;;;;;11.39;46.21;101304.36;1660875;85;21047;-62
2022/04/29 05:15:16;;;;;;;6.90;2.45;;;;;;;11.52;45.44;101307.88;1682550;85;21067;-61
2022/04/29 05:17:48;;;;;;;7.25;2.40;;;;;;;11.63;45.17;101311.06;1683153;85;21107;-61
2022/04/29 05:20:19;;;;;;;5.78;2.30;;;;;;;11.77;45.08;101309.97;1683367;85;21514;-60
2022/04/29 05:22:52;;;;;;;6.03;2.77;;;;;;;11.92;44.58;101316.39;1600399;88;21062;-60
2022/04/29 05:25:22;;;;;;;6.28;2.67;;;;;;;11.99;44.31;101305.86;1600556;88;21074;-60
2022/04/29 05:28:09;;;;;;;6.80;2.12;;;;;;;12.06;43.73;101312.32;1624153;87;21113;-60
2022/04/29 05:30:49;;;;;;;3.90;2.35;;;;;;;12.12;41.77;101303.86;1652695;85;21072;-62
2022/04/29 05:33:25;;;;;;;5.37;2.10;;;;;;;12.12;42.25;101309.35;1649559;87;21091;-61
2022/04/29 05:36:13;;;;;;;8.85;2.85;;;;;;;12.16;41.86;101313.95;1653110;87;21032;-61
2022/04/29 05:44:36;;;;;;;8.48;2.50;;;;;;;12.22;40.92;101314.06;1652997;87;21096;-62
2022/04/29 05:47:07;;;;;;;10.32;2.80;;;;;;;12.18;40.14;101315.48;1680862;82;21051;-61
2022/04/29 05:49:38;;;;;;;9.68;3.20;;;;;;;12.15;40.37;101314.48;1737084;82;21000;-61
2022/04/29 05:52:08;;;;;;;9.18;3.17;;;;;;;12.15;40.36;101318.59;1737110;82;21440;-62
2022/04/29 05:54:41;;;;;;;10.48;2.98;;;;;;;12.13;40.23;101315.70;1737728;82;21573;-60
2022/04/29 05:57:15;;;;;;;9.38;3.17;;;;;;;12.13;40.20;101322.56;1700673;84;21086;-62
2022/04/29 05:59:45;;;;;;;6.70;2.80;;;;;;;12.11;40.22;101321.91;1700548;84;21030;-63
2022/04/29 06:02:25;;;;;;;4.92;2.27;;;;;;;12.11;40.19;101322.75;1699696;84;21555;-60
2022/04/29 06:04:56;;;;;;;5.40;2.65;;;;;;;12.14;40.46;101329.25;1671322;84;21126;-61
2022/04/29 06:07:27;;;;;;;6.22;2.55;;;;;;;12.15;40.75;101317.74;1700523;84;21463;-62
2022/04/29 06:09:57;;;;;;;7.50;2.30;;;;;;;12.20;40.83;101323.02;1700727;84;21578;-61
2022/04/29 06:12:27;;;;;;;5.15;2.10;;;;;;;12.28;40.72;101322.94;1700311;84;21078;-61
2022/04/29 06:14:57;;;;;;;3.90;2.20;;;;;;;12.40;40.23;101326.64;1700755;84;21490;-62
2022/04/29 06:17:47;;;;;;;8.60;2.70;;;;;;;12.47;40.03;101331.72;1637256;86;21038;-61
2022/04/29 06:20:22;;;;;;;7.87;3.85;;;;;;;12.53;39.89;101326.33;1631970;88;21051;-63
2022/04/29 06:22:55;;;;;;;5.12;2.20;;;;;;;12.61;39.69;101325.39;1628556;87;21022;-63
2022/04/29 06:25:29;;;;;;;4.78;2.00;;;;;;;12.69;38.46;101329.42;1637570;87;21075;-61
2022/04/29 06:28:00;;;;;;;4.33;1.80;;;;;;;12.84;37.59;101329.42;1632683;88;21066;-61
2022/04/29 06:30:31;;;;;;;7.90;3.10;;;;;;;13.07;37.48;101332.09;1627610;88;21059;-61
2022/04/29 06:33:16;;;;;;;6.97;2.10;;;;;;;13.40;37.08;101331.17;1631788;88;21070;-63
2022/04/29 06:35:49;;;;;;;13.83;3.20;;;;;;;13.77;36.91;101336.50;1658310;85;21086;-61
2022/04/29 06:38:19;;;;;;;13.30;3.25;;;;;;;14.19;36.62;101339.77;1700843;84;21439;-61
2022/04/29 06:40:59;;;;;;;8.68;2.55;;;;;;;14.65;36.34;101335.73;1701790;84;21098;-61
2022/04/29 06:43:36;;;;;;;7.33;2.30;;;;;;;15.15;36.54;101339.56;1698798;84;21102;-60
2022/04/29 06:46:25;;;;;;;6.10;2.52;;;;;;;15.71;35.09;101339.41;1700691;83;21559;-61
2022/04/29 06:49:14;;;;;;;5.33;2.20;;;;;;;16.16;34.13;101335.02;1700579;84;21093;-60
2022/04/29 06:51:50;;;;;;;11.85;3.22;;;;;;;16.51;33.29;101340.90;1701028;83;21544;-62
2022/04/29 06:54:21;;;;;;;9.28;3.52;;;;;;;16.76;33.13;101338.66;1700675;84;21117;-63
2022/04/29 06:56:53;;;;;;;6.62;2.67;;;;;;;17.06;33.04;101338.20;1733336;81;21083;-60
2022/04/29 06:59:23;;;;;;;9.68;3.08;;;;;;;17.28;32.38;101334.08;1742763;82;21063;-61
2022/04/29 07:02:04;;;;;;;6.33;2.62;;;;;;;17.40;32.23;101334.23;1714088;82;21044;-62
2022/04/29 07:04:34;;;;;;;5.12;2.20;;;;;;;17.63;32.20;101329.57;1691004;82;21439;-61
2022/04/29 07:07:05;;;;;;;6.17;2.17;;;;;;;17.87;31.66;101328.81;1714276;82;21011;-61
2022/04/29 07:09:39;;;;;;;6.65;2.47;;;;;;;17.97;30.74;101331.95;1742614;81;21095;-61
2022/04/29 07:12:24;;;;;;;9.08;2.77;;;;;;;18.00;31.17;101331.50;1678800;84;21103;-63
2022/04/29 07:14:55;;;;;;;8.60;2.90;;;;;;;17.99;30.79;101335.88;1678204;84;21020;-61
2022/04/29 07:17:27;;;;;;;6.28;2.10;;;;;;;17.89;30.83;101329.44;1678667;85;21015;-61
2022/04/29 07:19:59;;;;;;;6.25;2.37;;;;;;;17.85;30.55;101328.19;1679165;85;21154;-61
2022/04/29 07:22:33;;;;;;;5.85;2.30;;;;;;;17.93;29.87;101326.53;1678915;85;21091;-61
2022/04/29 07:25:12;;;;;;;2.40;1.52;;;;;;;18.00;30.01;101327.88;1655484;85;21163;-61
2022/04/29 07:27:44;;;;;;;4.22;2.20;;;;;;;18.23;29.82;101325.92;1678774;84;21541;-63
2022/04/29 07:30:16;;;;;;;5.40;2.30;;;;;;;18.47;29.01;101323.69;1702797;82;20988;-62
2022/04/29 07:32:49;;;;;;;3.27;1.70;;;;;;;18.69;29.20;101323.61;1712662;82;21059;-60
2022/04/29 07:44:01;;;;;;;2.62;1.75;;;;;;;18.28;27.90;101333.03;1719010;82;21474;-63
2022/04/29 07:46:36;;;;;;;5.62;1.90;;;;;;;17.99;27.80;101331.72;1742658;82;21914;-61
2022/04/29 07:49:20;;;;;;;8.38;2.00;;;;;;;17.73;27.98;101329.97;1742685;81;21047;-61
2022/04/29 07:51:51;;;;;;;9.05;1.92;;;;;;;17.61;28.97;101321.48;1741796;81;21014;-60
2022/04/29 07:54:23;;;;;;;5.92;2.10;;;;;;;17.67;28.90;101319.23;1742501;81;21061;-60
2022/04/29 07:56:54;;;;;;;3.70;1.67;;;;;;;17.85;28.87;101315.72;1644480;86;21185;-61
2022/04/29 07:59:27;;;;;;;4.08;1.72;;;;;;;18.12;29.23;101314.13;1651326;87;21012;-62
2022/04/29 08:01:58;;;;;;;2.98;1.92;;;;;;;18.41;28.75;101310.72;1648540;87;21059;-61
2022/04/29 08:04:28;;;;;;;4.15;2.05;;;;;;;18.78;28.61;101317.76;1629764;87;21062;-59
2022/04/29 08:07:02;;;;;;;4.87;1.85;;;;;;;19.02;27.87;101318.27;1651279;87;21087;-60
2022/04/29 08:09:33;;;;;;;4.17;2.17;;;;;;;19.20;27.01;101311.86;1651106;87;21099;-60
2022/04/29 08:12:06;;;;;;;3.95;2.00;;;;;;;19.26;27.91;101313.71;1651096;87;21051;-62
2022/04/29 08:14:38;;;;;;;8.28;2.90;;;;;;;19.48;27.81;101306.58;1651556;87;21059;-62
2022/04/29 08:17:31;;;;;;;5.35;2.22;;;;;;;19.75;27.07;101307.66;1650515;87;21082;-60
2022/04/29 08:20:02;;;;;;;4.55;2.00;;;;;;;19.96;26.68;101297.38;1651059;87;21519;-61
2022/04/29 08:22:40;;;;;;;14.15;2.72;;;;;;;20.21;26.57;101293.89;1739191;82;21024;-61
2022/04/29 08:25:10;;;;;;;3.15;2.10;;;;;;;20.40;26.13;101286.33;1669443;86;21173;-62
2022/04/29 08:27:41;;;;;;;4.92;2.08;;;;;;;20.49;26.15;101285.42;1742320;81;21063;-62
2022/04/29 08:30:12;;;;;;;7.33;2.37;;;;;;;20.51;25.68;101281.30;1713264;82;21065;-60
2022/04/29 08:32:44;;;;;;;3.85;2.02;;;;;;;20.66;25.96;101279.42;1713544;82;21046;-60
2022/04/29 08:35:16;;;;;;;5.45;2.50;;;;;;;20.82;25.03;101278.72;1722327;82;20999;-62
2022/04/29 08:37:47;;;;;;;7.53;2.70;;;;;;;20.60;24.82;101280.94;1725773;82;21422;-60
2022/04/29 08:40:16;;;;;;;4.70;2.50;;;;;;;20.45;26.00;101272.53;1669197;85;21043;-63
2022/04/29 08:42:48;;;;;;;3.70;2.30;;;;;;;20.59;25.59;101271.73;1729118;82;21043;-65
2022/04/29 08:45:20;;;;;;;5.47;2.50;;;;;;;20.66;25.72;101268.83;1717108;83;21029;-62
2022/04/29 08:48:09;;;;;;;5.70;2.05;;;;;;;20.66;25.95;101261.87;1720235;83;21030;-63
2022/04/29 08:50:42;;;;;;;4.67;2.47;;;;;;;20.54;25.49;101262.72;1643494;86;21474;-62
2022/04/29 08:53:18;;;;;;;5.05;2.05;;;;;;;20.24;25.54;101267.52;1606501;89;21100;-59
2022/04/29 08:58:45;;;;;;;3.77;1.92;;;;;;;19.33;26.48;101265.30;1557043;92;21082;-60
2022/04/29 09:01:19;;;;;;;7.42;2.50;;;;;;;18.96;27.24;101265.03;1538080;92;21363;-60
2022/04/29 09:03:49;;;;;;;8.28;2.40;;;;;;;18.67;27.39;101266.08;1537159;92;21721;-61
2022/04/29 09:06:22;;;;;;;3.85;2.05;;;;;;;18.41;27.86;101268.24;1537758;92;21125;-61
2022/04/29 09:08:50;;;;;;;4.47;1.90;;;;;;;18.22;28.12;101261.80;1584479;88;21080;-61
2022/04/29 09:11:26;;;;;;;4.05;1.92;;;;;;;17.99;28.54;101267.41;1546783;93;21551;-60
2022/04/29 09:13:55;;;;;;;2.70;1.90;;;;;;;17.79;28.61;101262.55;1551617;91;21604;-61
2022/04/29 09:16:27;;;;;;;4.30;2.00;;;;;;;17.61;28.76;101266.58;1596755;87;21467;-59
2022/04/29 09:18:56;;;;;;;3.30;1.90;;;;;;;17.42;28.99;101269.75;1653382;87;21134;-62
2022/04/29 09:21:28;;;;;;;2.62;1.77;;;;;;;17.26;29.02;101266.11;1631531;86;21581;-59
2022/04/29 09:24:07;;;;;;;14.55;2.33;;;;;;;17.11;29.54;101263.09;1653328;87;21487;-60
2022/04/29 09:27:00;;;;;;;6.28;2.00;;;;;;;17.03;29.78;101261.10;1653369;86;21098;-61
2022/04/29 09:29:33;;;;;;;4.53;2.02;;;;;;;16.94;29.94;101264.66;1700856;82;21088;-59
2022/04/29 09:32:07;;;;;;;4.28;1.77;;;;;;;16.88;29.96;101267.41;1717577;82;21031;-64
2022/04/29 09:34:58;;;;;;;4.72;2.12;;;;;;;16.84;30.08;101257.84;1653782;86;21083;-62
2022/04/29 09:37:29;;;;;;;6.78;2.80;;;;;;;16.86;30.32;101259.33;1653542;87;21098;-60
2022/04/29 09:40:03;;;;;;;5.87;2.25;;;;;;;16.92;30.28;101268.70;1653171;87;21144;-62
2022/04/29 09:42:42;;;;;;;5.53;2.02;;;;;;;16.91;30.17;101262.86;1637033;87;21071;-61
2022/04/29 09:45:26;;;;;;;5.40;2.20;;;;;;;16.87;30.42;101257.41;1653203;87;21075;-62
2022/04/29 09:47:58;;;;;;;3.50;1.85;;;;;;;16.90;30.67;101261.13;1653484;87;21030;-65
2022/04/29 09:50:50;;;;;;;12.03;2.62;;;;;;;16.90;30.72;101252.81;1653698;87;21093;-62
2022/04/29 09:53:27;;;;;;;4.80;2.10;;;;;;;16.87;30.79;101251.34;1694089;82;21497;-61
2022/04/29 09:56:12;;;;;;;3.55;1.82;;;;;;;16.85;31.37;101247.08;1744748;82;20988;-62
2022/04/29 09:58:41;;;;;;;3.25;1.82;;;;;;;16.83;30.90;101254.76;1742541;82;21078;-63
2022/04/29 10:01:12;;;;;;;5.58;2.30;;;;;;;16.75;31.24;101247.55;1742796;81;21010;-62
2022/04/29 10:03:41;;;;;;;3.95;1.87;;;;;;;16.70;31.30;101248.20;1714353;82;21050;-61
2022/04/29 10:06:11;;;;;;;5.08;1.95;;;;;;;16.70;31.27;101250.11;1742290;81;21036;-61
2022/04/29 10:08:41;;;;;;;5.33;2.10;;;;;;;16.79;31.50;101250.19;1742629;82;21064;-62
2022/04/29 10:11:15;;;;;;;5.15;2.42;;;;;;;16.90;31.51;101251.44;1599178;89;21071;-60
2022/04/29 10:13:44;;;;;;;5.53;2.40;;;;;;;17.01;31.99;101253.55;1587306;90;21070;-61
2022/04/29 10:16:16;;;;;;;6.15;2.60;;;;;;;17.08;31.63;101247.45;1587389;90;21050;-61
2022/04/29 10:22:07;;;;;;;5.90;2.70;;;;;;;17.13;31.60;101241.25;1599261;90;21560;-61
2022/04/29 10:24:39;;;;;;;5.70;2.60;;;;;;;17.17;31.95;101246.13;1599189;90;21534;-60
2022/04/29 10:27:11;;;;;;;7.80;2.87;;;;;;;17.20;31.63;101246.22;1599027;90;21232;-63
2022/04/29 10:29:41;;;;;;;7.70;2.72;;;;;;;17.19;31.67;101245.91;1588829;90;21215;-60
2022/04/29 10:32:12;;;;;;;7.60;2.92;;;;;;;17.11;31.42;101245.09;1598969;89;21652;-63
2022/04/29 10:34:42;;;;;;;5.30;2.77;;;;;;;17.02;31.75;101235.33;1599004;90;21557;-64
2022/04/29 10:37:14;;;;;;;12.80;4.75;;;;;;;16.91;31.99;101236.02;1599017;90;21523;-60
2022/04/29 10:39:47;;;;;;;6.33;3.20;;;;;;;16.83;32.07;101231.23;1598885;90;21071;-63
2022/04/29 10:42:18;;;;;;;9.13;3.22;;;;;;;16.80;32.25;101229.75;1585067;89;21118;-61
2022/04/29 10:45:01;;;;;;;3.85;2.37;;;;;;;16.82;32.51;101235.06;1612114;89;21066;-62
2022/04/29 10:50:35;;;;;;;5.25;2.20;;;;;;;16.87;32.06;101231.11;1848096;77;22286;-62
2022/04/29 10:53:24;;;;;;;4.33;2.20;;;;;;;16.80;31.99;101220.91;1753514;82;21087;-61
2022/04/29 10:56:33;;;;;;;4.58;1.77;;;;;;;16.71;32.46;101221.38;1783184;80;21168;-63
2022/04/29 10:59:11;;;;;;;5.45;1.90;;;;;;;16.67;32.08;101218.72;1657650;85;21111;-60
2022/04/29 11:02:13;;;;;;;2.83;1.52;;;;;;;16.61;32.27;101216.27;1679566;85;21163;-60
2022/04/29 11:04:44;;;;;;;2.58;1.70;;;;;;;16.62;32.12;101212.42;1710948;84;21210;-62
2022/04/29 11:07:43;;;;;;;3.15;1.60;;;;;;;16.62;31.44;101208.28;1711280;83;21170;-62
2022/04/29 11:10:22;;;;;;;3.62;1.70;;;;;;;16.57;31.86;101212.23;1711087;84;21885;-60
2022/04/29 11:12:58;;;;;;;6.12;2.17;;;;;;;16.63;31.88;101203.59;1711032;82;21586;-60
2022/04/29 11:15:47;;;;;;;4.87;1.55;;;;;;;16.66;31.83;101205.95;1735198;82;21723;-61
2022/04/29 11:18:35;;;;;;;4.22;1.35;;;;;;;16.74;31.70;101201.56;1711219;84;21158;-61
2022/04/29 11:26:52;;;;;;;3.85;1.30;;;;;;;16.87;31.85;101202.89;1711248;82;21107;-62
2022/04/29 11:29:24;;;;;;;6.25;1.57;;;;;;;16.88;31.95;101203.74;1737633;79;21157;-61
2022/04/29 11:32:05;;;;;;;4.22;1.40;;;;;;;16.89;31.65;101196.59;1817681;79;21087;-62
2022/04/29 11:34:56;;;;;;;3.50;1.05;;;;;;;16.89;31.05;101186.91;1820537;79;21199;-60
2022/04/29 11:37:27;;;;;;;5.37;1.52;;;;;;;16.87;31.08;101189.05;1753884;82;21149;-61
2022/04/29 11:39:56;;;;;;;4.00;1.57;;;;;;;16.85;31.39;101191.72;1754790;80;21386;-60
2022/04/29 11:42:25;;;;;;;4.37;1.60;;;;;;;16.82;31.56;101185.24;1738050;81;21551;-61
2022/04/29 11:44:54;;;;;;;2.80;1.57;;;;;;;16.85;31.71;101187.03;1762255;81;21625;-61
2022/04/29 11:47:24;;;;;;;5.83;1.90;;;;;;;16.90;31.77;101182.22;1730996;81;21150;-60
2022/04/29 11:49:54;;;;;;;4.67;1.60;;;;;;;16.96;31.39;101181.38;1726862;82;21142;-60
2022/04/29 11:52:25;;;;;;;3.05;1.30;;;;;;;16.98;30.66;101176.47;1756229;82;21578;-61
2022/04/29 11:55:02;;;;;;;2.33;1.50;;;;;;;16.96;30.67;101171.69;1701930;82;21202;-60
2022/04/29 11:57:37;;;;;;;4.58;1.20;;;;;;;16.95;30.99;101171.38;1756352;81;21166;-59
2022/04/29 12:00:08;;;;;;;1.75;1.07;;;;;;;16.99;31.08;101171.24;1790732;80;21174;-60
2022/04/29 12:02:48;;;;;;;3.08;1.22;;;;;;;17.03;30.31;101171.11;1791291;80;21117;-63
2022/04/29 12:05:19;;;;;;;3.30;2.00;;;;;;;16.97;30.17;101158.16;1790965;80;21146;-60
2022/04/29 12:07:50;;;;;;;3.70;1.40;;;;;;;16.95;30.31;101149.22;1759955;80;21083;-61
2022/04/29 12:10:29;;;;;;;2.75;1.40;;;;;;;16.88;30.41;101155.30;1681968;85;21232;-61
2022/04/29 12:13:02;;;;;;;5.28;1.92;;;;;;;16.87;30.32;101143.38;1692433;85;21145;-59
2022/04/29 12:15:35;;;;;;;6.53;1.52;;;;;;;16.89;30.20;101139.00;1692338;85;21670;-60
2022/04/29 12:18:08;;;;;;;3.80;1.37;;;;;;;16.84;30.20;101140.20;1692763;85;21137;-60
2022/04/29 12:20:40;;;;;;;6.55;1.90;;;;;;;16.87;30.55;101135.07;1692432;85;21166;-62
2022/04/29 12:23:15;;;;;;;4.33;1.57;;;;;;;16.98;30.96;101128.02;1692623;85;21329;-60
2022/04/29 12:25:49;;;;;;;4.75;1.47;;;;;;;17.07;30.75;101126.67;1692331;85;21199;-63
2022/04/29 12:28:22;;;;;;;8.40;1.77;;;;;;;17.12;30.51;101121.32;1732601;80;21186;-62
2022/04/29 12:36:57;;;;;;;16.00;2.30;;;;;;;16.96;30.77;101128.23;1692340;85;21586;-59
2022/04/29 12:39:44;;;;;;;2.80;1.60;;;;;;;16.88;31.00;101121.55;1692368;85;21146;-60
2022/04/29 12:42:19;;;;;;;4.83;1.85;;;;;;;16.80;31.35;101121.80;1690464;85;21138;-61